OKBO2: North Canadian River at Britton Rd at OKC, OK

                                SHEF ID:       OKBO2     North Canadian River at Britton
STATION TYPE:

STAGE RIV-FLOW WTR-TEMP DIS-OXY CONDUCT BAT-LOAD
ft cfs F mg/l umho/cm volt
Ccp-Rev Ccp-Rev Ccp-Rev Ccp-Rev Ccp-Rev Ccp-Rev
(America/Chicago)
04/27 00:00 4.87 70 75.99 6.72 831 11.97
04/27 01:00 4.86 68 75.09 6.54 833 11.96
04/27 02:00 4.88 71 74.19 6.37 836 11.95
04/27 03:00 4.88 71 73.54 6.27 836 11.94
04/27 04:00 4.87 70 72.93 6.25 836 11.93
04/27 05:00 4.88 71 72.57 6.24 834 11.91
04/27 06:00 4.85 67 72.18 6.24 837 11.90
04/27 07:00 4.88 71 71.78 6.12 835 11.88
04/27 08:00 4.90 74 71.44 6.20 834 12.03
04/27 09:00 4.91 75 71.69 6.51 835 12.99
04/27 10:00 4.91 75 72.70 7.13 834 13.09
04/27 11:00 4.86 68 74.84 8.10 836 12.77
04/27 12:00 4.88 71 77.41 8.99 839 12.67
04/27 13:00 4.84 66 79.84 9.69 841 12.59
04/27 14:00 4.84 66 82.08 10.32 843 12.55
04/27 15:00 4.84 66 83.89 10.96 845 12.59
04/27 16:00 4.84 66 85.05 11.24 847 12.58
04/27 17:00 4.88 71 85.53 11.50 853 12.44
04/27 18:00 4.87 70 85.62 11.63 847 12.48
04/27 19:00 4.89 73 84.65 11.19 859 12.44
04/27 20:00 4.88 71 83.35 10.42 871 12.36
04/27 21:00 4.87 70 82.17 9.40 878 12.17
04/27 22:00 4.86 68 80.67 8.06 878 12.04
04/27 23:00 4.86 68 79.50 7.19 886 11.99
Data processed at Tue 28Apr2026 04:25 GMT

NOTICE: If you are parsing this page

Please convert to using our Data API. Starting early 2026 we will be migrating to: https://water.usace.army.mil with modern pages rendered in JavaScript. When this migration completes you will no longer be able to scrape this page! CWMSDataAPI (CDA)

Timeseries IDs (TSIDs)

TSIDs used from left to right in the data table
OKC3.Stage.Inst.1Hour.0.Ccp-Rev
OKC3.Flow.Inst.1Hour.0.Ccp-Rev
OKC3.Temp-Water.Inst.1Hour.0.Ccp-Rev
OKC3.Conc-DO.Inst.1Hour.0.Ccp-Rev
OKC3.Cond-Water.Inst.1Hour.0.Ccp-Rev
OKC3.Volt-Battery Load.Inst.1Hour.0.Ccp-Rev

                            

All information presented herein is the property of the government of the United States of America and may be revised or deleted at any time without prior notice. Dissemination of this information without the expressed written consent of the Public Affairs Office, Tulsa District U.S. Army Corps of Engineers is strictly prohibited. These data are gathered electronically and, as presented, have NOT undergone any form of quality control. These data are NOT guaranteed to be valid or correct.